Fujairah, United Arab Emirates
Current Conditions -  °F | °C
As of 11:00 PM on Tuesday 21 Oct 2014 (Local Time) from OMFJ Reporting Station
Clear Clear  
Wind Chill: 82°   Ceiling: Unl
Heat Index: 89°   Visibility: 4mi
Dew Point: 75°   Wind: 3mph
Humidity: 79%   Direction: 180°S
Pressure: 29.94"   Gusts: NA
Location:  25.34°N, 56.17°E
Report Text: OMFJ 211900Z 18003KT 7000 NSC 28/24 Q1014 A2995
Loading
Personal Weather Stations






























Interactive Weather Map
Tropical Storm Tracking
New forecast layout! Learn more

10-Day Weather Forecast

Advertisements
Track Severe Weather on mobile